NCAR-RAP Real-Time Weather Data

Output produced by METARs form (24 April 2018  16:11 UTC)
found at http://weather.rap.ucar.edu/surface/
 
RJOY 241000Z 11005KT 060V170 9999 -SHRA FEW010 SCT050 BKN070 19/17 Q1006
RJOY 240900Z 13003KT 100V200 9999 -SHRA FEW010 SCT050 BKN070 19/17 Q1006
RJOY 240800Z 06002KT 9000 -SHRA FEW005 SCT030 BKN050 19/17 Q1007
RJOY 240700Z 33003KT 300V010 9999 -SHRA FEW005 SCT030 BKN050 20/17 Q1008
RJOY 240600Z VRB02KT 9999 -SHRA FEW005 SCT030 BKN060 19/17 Q1008
RJOY 240500Z 05002KT 9999 -SHRA FEW005 SCT030 BKN060 19/17 Q1009
RJOY 240400Z 08004KT 050V110 9999 -RA FEW015 SCT035 BKN060 19/17 Q1010
RJOY 240300Z VRB01KT 8000 -RA FEW020 SCT035 BKN060 19/16 Q1011
RJOY 240200Z VRB01KT 9999 -RA FEW025 SCT040 BKN060 20/15 Q1012
RJOY 240100Z 12004KT 070V180 9999 FEW025 BKN050 BKN070 21/14 Q1012
RJOY 240000Z 11006KT 070V150 9999 -RA FEW025 SCT050 BKN070 21/15 Q1012
RJOY 232300Z 14004KT 100V190 9999 FEW025 SCT050 BKN100 20/14 Q1013
RJOY 231000Z 24004KT 180V350 9999 FEW050 BKN180 BKN/// 22/12 Q1016
RJOY 230900Z 29007KT 250V330 9999 FEW060 SCT160 BKN/// 22/12 Q1015
RJOY 230800Z 28013KT 9999 FEW060 SCT170 BKN/// 23/12 Q1015
RJOY 230700Z 28011KT 250V310 9999 FEW060 BKN/// 23/12 Q1015
RJOY 230600Z 30011KT 9999 FEW060 BKN/// 24/12 Q1015
RJOY 230500Z 27012KT 230V300 9999 FEW040 BKN/// 24/13 Q1016
RJOY 230400Z 26011KT 220V280 9999 FEW040 BKN/// 24/13 Q1017
RJOY 230300Z 26010KT 220V290 9999 FEW040 BKN/// 24/14 Q1017
RJOY 230200Z VRB03KT 9999 FEW035 BKN/// 24/14 Q1017
RJOY 230100Z VRB02KT 9999 FEW035 BKN/// 22/12 Q1018
RJOY 230000Z VRB04KT 9999 FEW035 BKN/// 21/13 Q1019
RJOY 222300Z VRB02KT CAVOK 19/13 Q1019
RJOY 221000Z 33006KT CAVOK 21/13 Q1017
RJOY 220900Z 29007KT CAVOK 23/09 Q1017
RJOY 220800Z 27008KT CAVOK 24/06 Q1017
RJOY 220700Z 28009KT CAVOK 24/07 Q1017
RJOY 220600Z 26007KT 220V280 9999 FEW035 BKN/// 24/09 Q1017
RJOY 220500Z 27010KT 220V300 CAVOK 25/10 Q1018